This is the latest recevied weather packets stored in our database for station/object KD0OXW. If no packets are shown the sender has not sent any weather packets the latest 10 day(s).
| Time | Temp. | Humidity | Pressure | Rain* | Wind** | Luminosity | Snow |
|---|---|---|---|---|---|---|---|
| 1777740499 | 12.22° C | 35% | 1017.2 hPa | 0 mm | - | - | - |
| 1777740199 | 12.22° C | 34% | 1017.4 hPa | 0 mm | - | - | - |
| 1777739899 | 11.67° C | 39% | 1017.3 hPa | 0 mm | - | - | - |
| 1777739599 | 11.67° C | 39% | 1017.3 hPa | 0 mm | - | - | - |
| 1777739299 | 11.11° C | 36% | 1017.5 hPa | 0 mm | - | - | - |
| 1777738999 | 11.11° C | 35% | 1017.6 hPa | 0 mm | - | - | - |
| 1777738699 | 11.11° C | 37% | 1017.7 hPa | 0 mm | - | - | - |
| 1777738399 | 11.11° C | 35% | 1017.7 hPa | 0 mm | - | - | - |
| 1777738099 | 11.11° C | 35% | 1017.8 hPa | 0 mm | - | - | - |
| 1777737799 | 11.11° C | 35% | 1017.8 hPa | 0 mm | - | - | - |
| 1777737499 | 11.11° C | 35% | 1017.9 hPa | 0 mm | - | - | - |
| 1777737199 | 10.56° C | 37% | 1018 hPa | 0 mm | - | - | - |
| 1777736899 | 10.56° C | 36% | 1018 hPa | 0 mm | - | - | - |
| 1777736599 | 10.56° C | 36% | 1018 hPa | 0 mm | - | - | - |
| 1777736299 | 10.56° C | 35% | 1018.1 hPa | 0 mm | - | - | - |
| 1777735999 | 10.56° C | 37% | 1018.1 hPa | 0 mm | - | - | - |
| 1777735699 | 10.56° C | 37% | 1018.2 hPa | 0 mm | - | - | - |
| 1777735399 | 10.56° C | 39% | 1018.2 hPa | 0 mm | - | - | - |
| 1777735099 | 10.56° C | 38% | 1018.3 hPa | 0 mm | - | - | - |
| 1777734799 | 10° C | 39% | 1018.3 hPa | 0 mm | - | - | - |
| 1777734499 | 10° C | 39% | 1018.4 hPa | 0 mm | - | - | - |
| 1777734199 | 10° C | 42% | 1018.4 hPa | 0 mm | - | - | - |
| 1777733899 | 10° C | 40% | 1018.5 hPa | 0 mm | - | - | - |
| 1777733599 | 9.44° C | 45% | 1018.5 hPa | 0 mm | - | - | - |
| 1777733299 | 9.44° C | 43% | 1018.5 hPa | 0 mm | - | - | - |
* Rain latest hour (hover to see other rain measurements)
** Current wind speed in m/s (hover to see current wind gust speed)